Time,TemperatureF,DewpointF,PressureIn,WindDirection,WindDirectionDegrees,WindSpeedMPH,WindSpeedGustMPH,Humidity,HourlyPrecipIn,Conditions,Clouds,dailyrainin,SoftwareType,DateUTC
2013-03-06 00:03:00,63.1,52.0,29.94,WSW,247,0.0,0.0,59,0.00,,,-99.99,Homeseer,2013-03-06 05:03:00,
2013-03-06 00:13:00,62.8,52.0,29.94,North,0,0.0,0.0,60,0.00,,,-99.99,Homeseer,2013-03-06 05:13:00,
2013-03-06 00:23:00,62.6,52.2,29.94,North,0,0.9,0.0,61,0.00,,,-99.99,Homeseer,2013-03-06 05:23:00,
2013-03-06 00:33:00,62.8,52.4,29.94,North,0,0.9,0.0,61,0.00,,,-99.99,Homeseer,2013-03-06 05:33:00,
2013-03-06 00:43:00,63.0,52.6,29.94,WNW,297,0.0,0.0,61,0.00,,,-99.99,Homeseer,2013-03-06 05:43:00,
2013-03-06 00:53:00,63.0,52.6,29.94,WSW,247,1.1,0.0,61,0.00,,,-99.99,Homeseer,2013-03-06 05:53:00,
2013-03-06 01:03:00,62.8,52.4,29.94,WNW,297,0.0,0.0,61,0.00,,,-99.99,Homeseer,2013-03-06 06:03:00,
2013-03-06 01:13:00,62.8,52.7,29.94,North,0,0.0,0.0,62,0.00,,,-99.99,Homeseer,2013-03-06 06:13:00,
2013-03-06 01:23:00,62.6,52.5,29.94,North,0,0.0,0.0,62,0.00,,,-99.99,Homeseer,2013-03-06 06:23:00,
2013-03-06 01:33:00,62.4,52.7,29.94,WNW,297,0.0,0.0,63,0.00,,,-99.99,Homeseer,2013-03-06 06:33:00,
2013-03-06 01:43:00,62.2,52.5,29.94,WNW,297,0.0,0.0,63,0.00,,,-99.99,Homeseer,2013-03-06 06:43:00,
2013-03-06 01:53:00,61.9,52.5,29.94,WNW,297,0.0,0.0,64,0.00,,,-99.99,Homeseer,2013-03-06 06:53:00,
2013-03-06 02:03:00,61.7,52.6,29.94,WSW,247,0.0,1.1,65,0.00,,,-99.99,Homeseer,2013-03-06 07:03:00,
2013-03-06 02:13:00,61.5,53.1,29.91,North,0,0.0,0.0,67,0.00,,,-99.99,Homeseer,2013-03-06 07:13:00,
2013-03-06 02:23:00,61.3,54.1,29.91,WNW,297,0.0,0.0,71,0.00,,,-99.99,Homeseer,2013-03-06 07:23:00,
2013-03-06 02:33:00,61.2,54.3,29.91,WSW,247,0.0,0.0,72,0.00,,,-99.99,Homeseer,2013-03-06 07:33:00,
2013-03-06 02:43:00,61.0,54.1,29.91,WNW,297,0.0,0.0,72,0.00,,,-99.99,Homeseer,2013-03-06 07:43:00,
2013-03-06 02:53:00,60.8,53.9,29.91,WNW,297,0.0,0.0,72,0.00,,,-99.99,Homeseer,2013-03-06 07:53:00,
2013-03-06 03:03:00,60.6,54.3,29.88,WNW,297,0.9,0.0,74,0.00,,,-99.99,Homeseer,2013-03-06 08:03:00,
2013-03-06 03:13:00,60.6,55.1,29.88,WSW,247,0.0,0.0,77,0.00,,,-99.99,Homeseer,2013-03-06 08:13:00,
2013-03-06 03:23:00,60.6,55.3,29.88,WNW,297,0.0,0.0,78,0.00,,,-99.99,Homeseer,2013-03-06 08:23:00,
2013-03-06 03:33:00,60.6,55.9,29.88,NNE,22,0.0,0.0,80,0.00,,,-99.99,Homeseer,2013-03-06 08:33:00,
2013-03-06 03:43:00,60.4,55.9,29.88,West,270,1.1,1.1,81,0.00,,,-99.99,Homeseer,2013-03-06 08:43:00,
2013-03-06 03:53:00,60.4,56.2,29.88,WNW,297,0.0,0.0,82,0.00,,,-99.99,Homeseer,2013-03-06 08:53:00,
2013-03-06 04:03:00,60.3,55.8,29.88,West,270,0.0,1.6,81,0.00,,,-99.99,Homeseer,2013-03-06 09:03:00,
2013-03-06 04:13:00,60.1,55.9,29.88,NNE,22,0.0,0.0,82,0.00,,,-99.99,Homeseer,2013-03-06 09:13:00,
2013-03-06 04:23:00,60.3,56.6,29.88,WSW,247,0.0,0.0,84,0.00,,,-99.99,Homeseer,2013-03-06 09:23:00,
2013-03-06 04:33:00,60.3,56.6,29.88,WSW,247,0.9,2.2,84,0.00,,,-99.99,Homeseer,2013-03-06 09:33:00,
2013-03-06 04:43:00,60.1,56.7,29.88,South,180,1.1,0.0,85,0.00,,,-99.99,Homeseer,2013-03-06 09:43:00,
2013-03-06 04:53:00,60.3,56.6,29.88,WNW,297,0.0,0.0,84,0.00,,,-99.99,Homeseer,2013-03-06 09:53:00,
2013-03-06 05:03:00,60.3,56.3,29.91,WNW,297,0.9,0.0,83,0.00,,,-99.99,Homeseer,2013-03-06 10:03:00,
2013-03-06 05:13:00,60.3,56.6,29.91,North,0,0.0,0.0,84,0.00,,,-99.99,Homeseer,2013-03-06 10:13:00,
2013-03-06 05:23:00,60.3,56.6,29.91,NW,315,0.0,1.1,84,0.00,,,-99.99,Homeseer,2013-03-06 10:23:00,
2013-03-06 05:33:00,60.3,56.6,29.91,WNW,297,0.0,0.0,84,0.00,,,-99.99,Homeseer,2013-03-06 10:33:00,
2013-03-06 05:43:00,60.1,56.4,29.91,NNE,22,0.0,0.0,84,0.00,,,-99.99,Homeseer,2013-03-06 10:43:00,
2013-03-06 05:53:00,60.1,56.4,29.91,WSW,247,0.0,0.0,84,0.00,,,-99.99,Homeseer,2013-03-06 10:53:00,
2013-03-06 06:03:00,60.1,56.4,29.91,WNW,297,0.0,0.0,84,0.00,,,-99.99,Homeseer,2013-03-06 11:03:00,
2013-03-06 06:13:00,59.9,56.5,29.91,NNE,22,0.0,0.0,85,0.00,,,-99.99,Homeseer,2013-03-06 11:13:00,
2013-03-06 06:23:00,59.5,56.1,29.91,WNW,297,0.0,0.0,85,0.00,,,-99.99,Homeseer,2013-03-06 11:23:00,
2013-03-06 06:33:00,59.5,56.3,29.91,North,0,0.0,0.0,86,0.00,,,-99.99,Homeseer,2013-03-06 11:33:00,
2013-03-06 06:43:00,59.5,56.6,29.91,WNW,297,0.0,0.0,87,0.00,,,-99.99,Homeseer,2013-03-06 11:43:00,
2013-03-06 06:53:00,59.7,57.2,29.91,WSW,247,0.0,0.0,89,0.00,,,-99.99,Homeseer,2013-03-06 11:53:00,
2013-03-06 07:03:00,59.9,57.7,29.91,North,0,0.9,0.0,90,0.00,,,-99.99,Homeseer,2013-03-06 12:03:00,
2013-03-06 07:13:00,60.3,58.3,29.91,North,0,0.9,0.9,91,0.00,,,-99.99,Homeseer,2013-03-06 12:13:00,
2013-03-06 07:23:00,60.6,58.8,29.91,West,270,0.0,3.1,92,0.00,,,-99.99,Homeseer,2013-03-06 12:23:00,
2013-03-06 07:33:00,61.2,59.2,29.94,North,0,0.9,0.0,91,0.00,,,-99.99,Homeseer,2013-03-06 12:33:00,
2013-03-06 07:43:00,61.7,59.7,29.94,WSW,247,3.8,3.8,91,0.00,,,-99.99,Homeseer,2013-03-06 12:43:00,
2013-03-06 07:53:00,62.1,60.1,29.94,SSE,157,1.3,2.5,91,0.00,,,-99.99,Homeseer,2013-03-06 12:53:00,
2013-03-06 08:03:00,63.3,60.8,29.94,WNW,297,2.7,2.7,89,0.00,,,-99.99,Homeseer,2013-03-06 13:03:00,
2013-03-06 08:13:00,63.7,60.9,29.94,WNW,297,2.9,2.9,88,0.00,,,-99.99,Homeseer,2013-03-06 13:13:00,
2013-03-06 08:23:00,64.8,61.2,29.94,North,0,3.4,3.4,85,0.00,,,-99.99,Homeseer,2013-03-06 13:23:00,
2013-03-06 08:33:00,64.8,61.2,29.94,North,0,3.6,3.6,85,0.00,,,-99.99,Homeseer,2013-03-06 13:33:00,
2013-03-06 08:43:00,66.4,61.2,29.94,WSW,247,5.4,5.4,79,0.00,,,-99.99,Homeseer,2013-03-06 13:43:00,
2013-03-06 08:53:00,67.1,61.3,29.94,North,0,2.7,2.7,77,0.00,,,-99.99,Homeseer,2013-03-06 13:53:00,
2013-03-06 09:03:00,67.8,60.6,29.94,North,0,1.1,3.1,72,0.00,,,-99.99,Homeseer,2013-03-06 14:03:00,
2013-03-06 09:13:00,68.5,59.7,29.94,North,0,2.5,3.6,67,0.00,,,-99.99,Homeseer,2013-03-06 14:13:00,
2013-03-06 09:23:00,69.4,58.5,29.94,WNW,297,2.2,3.1,61,0.00,,,-99.99,Homeseer,2013-03-06 14:23:00,
2013-03-06 09:33:00,69.8,55.9,29.94,NW,315,2.7,7.4,53,0.00,,,-99.99,Homeseer,2013-03-06 14:33:00,
2013-03-06 09:43:00,70.2,55.1,29.94,WNW,297,4.7,7.8,50,0.00,,,-99.99,Homeseer,2013-03-06 14:43:00,
2013-03-06 09:53:00,70.9,55.3,29.94,North,0,4.5,8.1,49,0.00,,,-99.99,Homeseer,2013-03-06 14:53:00,
2013-03-06 10:03:00,71.6,55.5,29.94,North,0,4.5,6.0,48,0.00,,,-99.99,Homeseer,2013-03-06 15:03:00,
2013-03-06 10:13:00,72.5,55.9,29.94,West,270,3.8,3.8,47,0.00,,,-99.99,Homeseer,2013-03-06 15:13:00,
2013-03-06 10:23:00,72.9,55.3,29.94,WNW,297,4.3,4.3,45,0.00,,,-99.99,Homeseer,2013-03-06 15:23:00,
2013-03-06 10:33:00,73.6,55.0,29.94,WNW,297,3.8,3.8,43,0.00,,,-99.99,Homeseer,2013-03-06 15:33:00,
2013-03-06 10:43:00,73.9,55.7,29.91,WNW,297,3.8,8.1,44,0.00,,,-99.99,Homeseer,2013-03-06 15:43:00,
2013-03-06 10:53:00,73.2,55.6,29.91,North,0,7.8,7.8,45,0.00,,,-99.99,Homeseer,2013-03-06 15:53:00,
2013-03-06 11:03:00,73.0,55.9,29.94,North,0,6.9,6.9,46,0.00,,,-99.99,Homeseer,2013-03-06 16:03:00,
2013-03-06 11:13:00,73.6,56.4,29.91,WNW,297,6.5,6.5,46,0.00,,,-99.99,Homeseer,2013-03-06 16:13:00,
2013-03-06 11:23:00,74.1,56.9,29.91,NW,315,3.8,5.6,46,0.00,,,-99.99,Homeseer,2013-03-06 16:23:00,
2013-03-06 11:33:00,74.8,56.5,29.91,North,0,10.1,10.1,44,0.00,,,-99.99,Homeseer,2013-03-06 16:33:00,
2013-03-06 11:43:00,75.4,56.6,29.91,WNW,297,8.7,8.7,43,0.00,,,-99.99,Homeseer,2013-03-06 16:43:00,
2013-03-06 11:53:00,76.5,57.6,29.91,WNW,297,7.6,7.6,43,0.00,,,-99.99,Homeseer,2013-03-06 16:53:00,
2013-03-06 12:03:00,75.4,56.6,29.91,NW,315,6.7,6.7,43,0.00,,,-99.99,Homeseer,2013-03-06 17:03:00,
2013-03-06 12:13:00,75.2,56.4,29.91,North,0,5.6,5.6,43,0.00,,,-99.99,Homeseer,2013-03-06 17:13:00,
2013-03-06 12:23:00,74.5,56.7,29.91,North,0,5.4,6.3,45,0.00,,,-99.99,Homeseer,2013-03-06 17:23:00,
2013-03-06 12:33:00,73.4,58.4,29.91,WNW,297,9.6,12.8,51,0.00,,,-99.99,Homeseer,2013-03-06 17:33:00,
2013-03-06 12:43:00,71.6,61.6,29.91,WNW,297,13.0,13.0,64,0.00,,,-99.99,Homeseer,2013-03-06 17:43:00,
2013-03-06 12:53:00,70.9,61.9,29.91,North,0,8.1,8.7,67,0.00,,,-99.99,Homeseer,2013-03-06 17:53:00,
2013-03-06 13:03:00,70.7,62.1,29.88,North,0,12.8,12.8,68,0.00,,,-99.99,Homeseer,2013-03-06 18:03:00,
2013-03-06 13:13:00,70.3,63.5,29.88,North,0,8.1,11.4,74,0.00,,,-99.99,Homeseer,2013-03-06 18:13:00,
2013-03-06 13:23:00,71.8,63.8,29.88,North,0,9.6,9.6,70,0.00,,,-99.99,Homeseer,2013-03-06 18:23:00,
2013-03-06 13:33:00,71.8,63.8,29.88,North,0,10.1,13.0,70,0.00,,,-99.99,Homeseer,2013-03-06 18:33:00,
2013-03-06 13:43:00,74.3,62.0,29.85,North,0,7.6,7.6,58,0.00,,,-99.99,Homeseer,2013-03-06 18:43:00,
2013-03-06 13:53:00,75.0,59.4,29.85,North,0,7.2,11.0,50,0.00,,,-99.99,Homeseer,2013-03-06 18:53:00,
2013-03-06 14:03:00,75.2,57.8,29.85,NW,315,6.3,6.3,46,0.00,,,-99.99,Homeseer,2013-03-06 19:03:00,
2013-03-06 14:13:00,75.0,58.1,29.85,North,0,6.9,6.9,47,0.00,,,-99.99,Homeseer,2013-03-06 19:13:00,
2013-03-06 14:23:00,75.9,56.0,29.85,North,0,11.9,11.9,41,0.00,,,-99.99,Homeseer,2013-03-06 19:23:00,
2013-03-06 14:33:00,76.1,55.7,29.85,North,0,10.7,10.7,40,0.00,,,-99.99,Homeseer,2013-03-06 19:33:00,
2013-03-06 14:43:00,76.5,54.4,29.83,North,0,9.2,9.2,37,0.00,,,-99.99,Homeseer,2013-03-06 19:43:00,
2013-03-06 14:53:00,76.6,52.8,29.83,North,0,13.9,13.9,34,0.00,,,-99.99,Homeseer,2013-03-06 19:53:00,
2013-03-06 15:03:00,76.8,52.9,29.83,NW,315,9.6,10.7,34,0.00,,,-99.99,Homeseer,2013-03-06 20:03:00,
2013-03-06 15:13:00,76.8,52.3,29.83,North,0,7.6,8.7,33,0.00,,,-99.99,Homeseer,2013-03-06 20:13:00,
2013-03-06 15:23:00,77.2,50.7,29.83,WNW,297,15.7,15.7,30,0.00,,,-99.99,Homeseer,2013-03-06 20:23:00,
2013-03-06 15:33:00,77.0,47.7,29.83,North,0,12.1,12.1,26,0.00,,,-99.99,Homeseer,2013-03-06 20:33:00,
2013-03-06 15:43:00,76.8,49.0,29.83,NW,315,8.5,10.1,28,0.00,,,-99.99,Homeseer,2013-03-06 20:43:00,
2013-03-06 15:53:00,76.6,48.1,29.83,North,0,7.4,10.5,27,0.00,,,-99.99,Homeseer,2013-03-06 20:53:00,
2013-03-06 16:03:00,76.8,46.8,29.83,WNW,297,9.4,11.0,25,0.00,,,-99.99,Homeseer,2013-03-06 21:03:00,
2013-03-06 16:13:00,76.5,46.5,29.83,North,0,10.7,12.8,25,0.00,,,-99.99,Homeseer,2013-03-06 21:13:00,
2013-03-06 16:23:00,76.5,44.9,29.83,NW,315,13.2,13.2,23,0.00,,,-99.99,Homeseer,2013-03-06 21:23:00,
2013-03-06 16:33:00,76.1,44.6,29.83,NNE,22,12.1,12.1,23,0.00,,,-99.99,Homeseer,2013-03-06 21:33:00,
2013-03-06 16:43:00,75.7,44.3,29.83,WNW,297,11.9,11.9,23,0.00,,,-99.99,Homeseer,2013-03-06 21:43:00,
2013-03-06 16:53:00,75.7,43.4,29.83,NNE,22,15.2,15.2,22,0.00,,,-99.99,Homeseer,2013-03-06 21:53:00,
2013-03-06 17:03:00,75.4,43.2,29.83,North,0,13.7,13.7,22,0.00,,,-99.99,Homeseer,2013-03-06 22:03:00,
2013-03-06 17:13:00,75.0,42.8,29.83,North,0,11.2,13.4,22,0.00,,,-99.99,Homeseer,2013-03-06 22:13:00,
2013-03-06 17:23:00,74.7,42.6,29.83,North,0,12.8,13.7,22,0.00,,,-99.99,Homeseer,2013-03-06 22:23:00,
2013-03-06 17:33:00,73.9,42.0,29.83,North,0,13.9,13.9,22,0.00,,,-99.99,Homeseer,2013-03-06 22:33:00,
2013-03-06 17:43:00,73.8,41.0,29.83,NW,315,13.2,13.2,21,0.00,,,-99.99,Homeseer,2013-03-06 22:43:00,
2013-03-06 17:53:00,72.5,40.8,29.83,North,0,10.1,13.0,22,0.00,,,-99.99,Homeseer,2013-03-06 22:53:00,
2013-03-06 18:03:00,72.1,40.5,29.83,North,0,9.4,9.4,22,0.00,,,-99.99,Homeseer,2013-03-06 23:03:00,
2013-03-06 18:13:00,71.4,39.9,29.85,North,0,10.7,11.0,22,0.00,,,-99.99,Homeseer,2013-03-06 23:13:00,
2013-03-06 18:23:00,70.7,39.4,29.85,North,0,9.2,10.7,22,0.00,,,-99.99,Homeseer,2013-03-06 23:23:00,
2013-03-06 18:33:00,70.2,39.0,29.85,North,0,12.1,12.1,22,0.00,,,-99.99,Homeseer,2013-03-06 23:33:00,
2013-03-06 18:43:00,69.1,38.9,29.85,North,0,8.7,8.7,23,0.00,,,-99.99,Homeseer,2013-03-06 23:43:00,
2013-03-06 18:53:00,68.7,39.4,29.85,NW,315,6.0,7.4,24,0.00,,,-99.99,Homeseer,2013-03-06 23:53:00,
2013-03-06 19:03:00,68.7,39.4,29.88,North,0,11.2,12.5,24,0.00,,,-99.99,Homeseer,2013-03-07 00:03:00,
2013-03-06 19:13:00,68.7,39.4,29.88,North,0,13.2,15.4,24,0.00,,,-99.99,Homeseer,2013-03-07 00:13:00,
2013-03-06 19:23:00,68.7,39.4,29.88,North,0,10.3,10.7,24,0.00,,,-99.99,Homeseer,2013-03-07 00:23:00,
2013-03-06 19:33:00,66.6,29.2,29.88,North,0,14.1,14.1,15,0.00,,,-99.99,Homeseer,2013-03-07 00:33:00,
2013-03-06 19:43:00,66.6,29.2,29.88,North,0,10.5,10.5,15,0.00,,,-99.99,Homeseer,2013-03-07 00:43:00,
2013-03-06 19:53:00,66.6,29.2,29.88,North,0,8.5,10.1,15,0.00,,,-99.99,Homeseer,2013-03-07 00:53:00,
2013-03-06 20:03:00,66.6,29.2,29.88,North,0,9.2,10.1,15,0.00,,,-99.99,Homeseer,2013-03-07 01:03:00,
2013-03-06 20:13:00,66.6,29.2,29.91,WNW,297,9.8,9.8,15,0.00,,,-99.99,Homeseer,2013-03-07 01:13:00,
2013-03-06 20:23:00,66.6,29.2,29.91,North,0,8.5,10.1,15,0.00,,,-99.99,Homeseer,2013-03-07 01:23:00,
2013-03-06 20:33:00,0.0,0.0,29.91,North,0,9.4,13.2,0,0.00,,,-99.99,Homeseer,2013-03-07 01:33:00,
2013-03-06 20:43:00,63.5,27.9,29.91,North,0,11.9,11.9,16,0.00,,,-99.99,Homeseer,2013-03-07 01:43:00,
2013-03-06 20:53:00,63.1,27.6,29.91,North,0,9.6,10.3,16,0.00,,,-99.99,Homeseer,2013-03-07 01:53:00,
2013-03-06 21:03:00,62.4,30.0,29.91,North,0,9.8,10.7,19,0.00,,,-99.99,Homeseer,2013-03-07 02:03:00,
2013-03-06 21:13:00,62.1,29.8,29.91,North,0,9.8,11.2,19,0.00,,,-99.99,Homeseer,2013-03-07 02:13:00,
2013-03-06 21:23:00,61.7,29.5,29.91,WNW,297,9.4,12.3,19,0.00,,,-99.99,Homeseer,2013-03-07 02:23:00,
2013-03-06 21:33:00,61.0,28.9,29.91,North,0,7.2,9.8,19,0.00,,,-99.99,Homeseer,2013-03-07 02:33:00,
2013-03-06 21:43:00,61.0,28.9,29.94,North,0,11.4,13.0,19,0.00,,,-99.99,Homeseer,2013-03-07 02:43:00,
2013-03-06 21:53:00,61.0,28.9,29.94,NNE,22,11.2,11.2,19,0.00,,,-99.99,Homeseer,2013-03-07 02:53:00,
2013-03-06 22:03:00,59.2,33.6,29.94,North,0,10.5,10.5,27,0.00,,,-99.99,Homeseer,2013-03-07 03:03:00,
2013-03-06 22:13:00,58.5,33.7,29.94,WNW,297,12.8,12.8,28,0.00,,,-99.99,Homeseer,2013-03-07 03:13:00,
2013-03-06 22:23:00,58.1,34.6,29.94,North,0,10.7,11.9,30,0.00,,,-99.99,Homeseer,2013-03-07 03:23:00,
2013-03-06 22:33:00,57.7,36.0,29.94,North,0,9.0,9.0,33,0.00,,,-99.99,Homeseer,2013-03-07 03:33:00,
2013-03-06 22:43:00,57.2,36.6,29.94,North,0,11.9,11.9,35,0.00,,,-99.99,Homeseer,2013-03-07 03:43:00,
2013-03-06 22:53:00,56.8,36.8,29.94,North,0,9.4,9.4,36,0.00,,,-99.99,Homeseer,2013-03-07 03:53:00,
2013-03-06 23:03:00,56.7,36.7,29.97,WNW,297,12.3,12.3,36,0.00,,,-99.99,Homeseer,2013-03-07 04:03:00,
2013-03-06 23:13:00,56.5,36.5,29.94,North,0,9.4,9.4,36,0.00,,,-99.99,Homeseer,2013-03-07 04:13:00,
2013-03-06 23:23:00,56.1,37.2,29.94,North,0,8.5,8.7,38,0.00,,,-99.99,Homeseer,2013-03-07 04:23:00,
2013-03-06 23:33:00,55.8,38.3,29.97,North,0,9.0,10.3,41,0.00,,,-99.99,Homeseer,2013-03-07 04:33:00,
2013-03-06 23:43:00,55.6,38.6,29.94,North,0,9.0,9.6,42,0.00,,,-99.99,Homeseer,2013-03-07 04:43:00,
2013-03-06 23:53:00,55.4,39.2,29.94,North,0,7.8,7.8,44,0.00,,,-99.99,Homeseer,2013-03-07 04:53:00,